Time;durP1;ratioP1;P1;durP2;ratioP2;P2;SDS_P1;SDS_P2;PMS_P1;PMS_P2;Temp;Humidity;BMP_temperature;BMP_pressure;BME280_temperature;BME280_humidity;BME280_pressure;Samples;Min_cycle;Max_cycle;Signal;HPM_P1;HPM_P2
2024/01/01 00:02:17;;;;;;;18.80;10.80;;;22.90;36.10;;;;;;4930755;29;20067;-58
2024/01/01 00:04:44;;;;;;;17.20;10.57;;;22.90;36.10;;;;;;4928214;29;20054;-58
2024/01/01 00:07:11;;;;;;;15.18;9.30;;;22.90;36.10;;;;;;4930053;29;20051;-57
2024/01/01 00:09:38;;;;;;;14.00;8.85;;;22.90;36.10;;;;;;4930197;29;20406;-59
2024/01/01 00:12:08;;;;;;;12.82;8.48;;;22.80;36.00;;;;;;4929030;29;20523;-58
2024/01/01 00:14:36;;;;;;;11.77;7.93;;;22.80;36.00;;;;;;4922627;29;20067;-58
2024/01/01 00:17:04;;;;;;;12.00;7.38;;;22.80;36.00;;;;;;4929344;29;20407;-59
2024/01/01 00:19:31;;;;;;;10.63;6.75;;;22.80;35.90;;;;;;4929465;29;20055;-59
2024/01/01 00:21:58;;;;;;;12.82;7.30;;;22.80;35.90;;;;;;4926414;29;20501;-58
2024/01/01 00:24:25;;;;;;;12.07;6.93;;;22.70;35.90;;;;;;4921455;29;20055;-55
2024/01/01 00:26:52;;;;;;;10.50;7.07;;;22.70;35.90;;;;;;4920147;29;20056;-58
2024/01/01 00:29:20;;;;;;;11.52;7.47;;;22.70;36.00;;;;;;4910540;29;20056;-54
2024/01/01 00:31:48;;;;;;;11.60;6.32;;;22.60;35.90;;;;;;4912781;29;20068;-54
2024/01/01 00:34:15;;;;;;;7.88;5.50;;;22.60;35.90;;;;;;4910870;29;20056;-57
2024/01/01 00:36:44;;;;;;;8.00;5.72;;;22.60;36.00;;;;;;4912291;29;20512;-57
2024/01/01 00:39:11;;;;;;;6.82;4.22;;;22.50;35.90;;;;;;4912136;29;20060;-52
2024/01/01 00:41:39;;;;;;;8.55;4.90;;;22.50;35.90;;;;;;4913574;29;20056;-55
2024/01/01 00:44:06;;;;;;;8.35;4.70;;;22.50;35.90;;;;;;4910772;29;20052;-56
2024/01/01 00:46:33;;;;;;;7.47;4.25;;;22.50;36.00;;;;;;4910889;29;20416;-55
2024/01/01 00:49:02;;;;;;;7.93;4.65;;;22.50;36.10;;;;;;4911676;29;20055;-53
2024/01/01 00:51:29;;;;;;;9.13;4.60;;;22.50;36.10;;;;;;4911407;29;20090;-57
2024/01/01 00:53:56;;;;;;;5.78;3.88;;;22.50;36.20;;;;;;4908157;29;20052;-58
2024/01/01 00:56:23;;;;;;;5.53;3.38;;;22.50;36.20;;;;;;4912383;29;20052;-56
2024/01/01 00:58:50;;;;;;;4.95;3.55;;;22.60;36.20;;;;;;4912036;29;20048;-59
2024/01/01 01:01:17;;;;;;;5.38;3.33;;;22.60;36.10;;;;;;4912428;29;20056;-52
2024/01/01 01:03:45;;;;;;;5.50;3.38;;;22.60;36.10;;;;;;4909653;29;20056;-55
2024/01/01 01:06:13;;;;;;;5.60;3.15;;;22.70;36.10;;;;;;4911534;29;20056;-57
2024/01/01 01:08:40;;;;;;;7.00;3.63;;;22.70;36.00;;;;;;4911162;29;20052;-55
2024/01/01 01:11:07;;;;;;;6.72;3.33;;;22.70;36.00;;;;;;4911504;29;20052;-53
2024/01/01 01:13:34;;;;;;;4.85;2.67;;;22.80;35.90;;;;;;4910652;29;20646;-56
2024/01/01 01:16:02;;;;;;;4.32;2.60;;;22.80;35.90;;;;;;4910566;29;20056;-56
2024/01/01 01:18:29;;;;;;;4.93;3.00;;;22.80;35.80;;;;;;4908731;29;20052;-52
2024/01/01 01:20:56;;;;;;;6.22;2.72;;;22.80;35.80;;;;;;4914297;29;20060;-55
2024/01/01 01:23:25;;;;;;;4.55;2.20;;;22.80;35.80;;;;;;4910578;29;20052;-56
2024/01/01 01:25:52;;;;;;;4.75;2.50;;;22.80;35.80;;;;;;4912511;29;20063;-56
2024/01/01 01:28:22;;;;;;;3.42;2.17;;;22.80;35.70;;;;;;4925721;29;20130;-58
2024/01/01 01:30:49;;;;;;;5.50;2.38;;;22.80;35.70;;;;;;4929776;29;20043;-54
2024/01/01 01:34:09;;;;;;;4.05;2.10;;;22.80;35.70;;;;;;4928929;29;20052;-56
2024/01/01 01:36:36;;;;;;;7.22;2.08;;;22.80;35.60;;;;;;4929397;29;20412;-55
2024/01/01 01:39:05;;;;;;;5.00;2.25;;;22.80;35.60;;;;;;4930111;29;20051;-52
2024/01/01 01:41:32;;;;;;;7.28;2.22;;;22.70;35.60;;;;;;4929186;29;20527;-55
2024/01/01 01:43:59;;;;;;;8.07;2.53;;;22.70;35.50;;;;;;4928795;29;20129;-56
2024/01/01 01:46:28;;;;;;;5.38;2.28;;;22.70;35.50;;;;;;4927752;29;20051;-54
2024/01/01 01:48:55;;;;;;;5.13;2.00;;;22.60;35.50;;;;;;4928713;29;20063;-56
2024/01/01 01:51:22;;;;;;;3.53;1.70;;;22.60;35.50;;;;;;4929587;29;20432;-55
2024/01/01 01:53:49;;;;;;;4.03;1.70;;;22.60;35.50;;;;;;4926566;29;20086;-57
2024/01/01 01:56:19;;;;;;;4.22;1.50;;;22.60;35.40;;;;;;4927858;29;20909;-55
2024/01/01 01:58:48;;;;;;;5.45;1.98;;;22.60;35.40;;;;;;4929110;29;20055;-56
2024/01/01 02:01:15;;;;;;;3.65;1.45;;;22.60;35.40;;;;;;4929543;29;20412;-53
2024/01/01 02:03:44;;;;;;;3.03;1.52;;;22.50;35.40;;;;;;4927537;29;20071;-53
2024/01/01 02:06:11;;;;;;;5.45;1.80;;;22.50;35.40;;;;;;4928976;29;20055;-56
2024/01/01 02:08:38;;;;;;;2.90;1.60;;;22.50;35.40;;;;;;4927273;29;20500;-55
2024/01/01 02:11:05;;;;;;;3.35;1.70;;;22.50;35.40;;;;;;4929011;29;20047;-56
2024/01/01 02:13:34;;;;;;;3.58;1.45;;;22.50;35.40;;;;;;4928390;29;20419;-55
2024/01/01 02:16:01;;;;;;;2.50;1.50;;;22.50;35.50;;;;;;4927351;29;20059;-54
2024/01/01 02:18:28;;;;;;;6.00;2.03;;;22.40;35.50;;;;;;4927442;29;20059;-54
2024/01/01 02:20:56;;;;;;;4.50;1.30;;;22.40;35.50;;;;;;4929628;29;20051;-56
2024/01/01 02:23:24;;;;;;;4.93;1.63;;;22.50;35.70;;;;;;4929547;29;20055;-52
2024/01/01 02:25:52;;;;;;;3.88;1.42;;;22.50;35.70;;;;;;4928795;29;20063;-53
2024/01/01 02:28:19;;;;;;;4.45;1.60;;;22.50;35.80;;;;;;4918109;29;20516;-56
2024/01/01 02:30:46;;;;;;;5.18;1.73;;;22.60;35.80;;;;;;4912575;29;20055;-54
2024/01/01 02:33:14;;;;;;;2.38;1.20;;;22.60;35.80;;;;;;4913097;29;20074;-53
2024/01/01 02:35:41;;;;;;;4.78;1.48;;;22.70;35.70;;;;;;4912007;29;20477;-52
2024/01/01 02:38:08;;;;;;;4.32;1.40;;;22.70;35.60;;;;;;4907348;29;20063;-53
2024/01/01 02:40:38;;;;;;;3.80;1.30;;;22.70;35.60;;;;;;4909149;29;20052;-54
2024/01/01 02:43:05;;;;;;;4.15;1.65;;;22.80;35.60;;;;;;4911686;29;20052;-57
2024/01/01 02:45:33;;;;;;;3.88;1.30;;;22.80;35.50;;;;;;4909260;29;20067;-56
2024/01/01 02:48:00;;;;;;;5.25;1.60;;;22.80;35.50;;;;;;4912896;29;20417;-54
2024/01/01 02:50:29;;;;;;;5.32;1.70;;;22.80;35.40;;;;;;4912395;29;20047;-57
2024/01/01 02:52:56;;;;;;;5.40;1.60;;;22.80;35.30;;;;;;4909176;29;20421;-54
2024/01/01 02:55:23;;;;;;;3.38;1.20;;;22.80;35.30;;;;;;4910922;29;20544;-53
2024/01/01 02:57:52;;;;;;;3.85;1.67;;;22.80;35.20;;;;;;4911177;29;20048;-57
2024/01/01 03:00:20;;;;;;;4.05;1.65;;;22.80;35.20;;;;;;4908202;29;20056;-54
2024/01/01 03:02:47;;;;;;;4.03;1.55;;;22.80;35.20;;;;;;4909857;29;20052;-53
2024/01/01 03:05:14;;;;;;;4.38;1.70;;;22.80;35.20;;;;;;4909782;29;20047;-56
2024/01/01 03:07:41;;;;;;;6.15;1.80;;;22.80;35.20;;;;;;4913157;29;20056;-55
2024/01/01 03:10:09;;;;;;;4.55;1.38;;;22.80;35.20;;;;;;4913093;29;20052;-56
2024/01/01 03:12:36;;;;;;;6.03;2.08;;;22.70;35.10;;;;;;4910204;29;20060;-56
2024/01/01 03:15:06;;;;;;;5.18;1.50;;;22.70;35.00;;;;;;4909868;29;20052;-54
2024/01/01 03:17:33;;;;;;;4.22;1.50;;;22.70;35.00;;;;;;4908832;29;20060;-56
2024/01/01 03:20:00;;;;;;;5.15;1.63;;;22.70;35.00;;;;;;4912416;29;20056;-54
2024/01/01 03:22:27;;;;;;;5.88;1.63;;;22.70;35.50;;;;;;4916994;29;20048;-56
2024/01/01 03:24:55;;;;;;;5.75;2.05;;;22.60;34.90;;;;;;4911412;29;20056;-51
2024/01/01 03:27:22;;;;;;;4.28;1.70;;;22.60;34.90;;;;;;4912703;29;20060;-56
2024/01/01 03:29:50;;;;;;;3.58;1.35;;;22.60;34.90;;;;;;4929179;29;20055;-55
2024/01/01 03:32:19;;;;;;;5.95;1.52;;;22.50;34.80;;;;;;4928055;29;20063;-54
2024/01/01 03:34:46;;;;;;;4.90;1.58;;;22.60;34.90;;;;;;4929364;29;20485;-57
2024/01/01 03:37:13;;;;;;;3.17;1.33;;;22.50;34.80;;;;;;4925786;29;20079;-55
2024/01/01 03:39:40;;;;;;;5.53;1.60;;;22.50;34.70;;;;;;4927411;29;20133;-54
2024/01/01 03:42:07;;;;;;;5.15;1.83;;;22.50;34.70;;;;;;4926909;29;20071;-56
2024/01/01 03:44:34;;;;;;;5.30;1.70;;;22.50;34.70;;;;;;4925297;29;20066;-56
2024/01/01 03:47:02;;;;;;;6.28;1.92;;;22.50;34.80;;;;;;4928399;29;20059;-54
2024/01/01 03:49:31;;;;;;;4.55;1.48;;;22.40;34.80;;;;;;4926663;29;20083;-55
2024/01/01 03:51:58;;;;;;;6.03;1.67;;;22.50;35.00;;;;;;4926905;29;20251;-54
2024/01/01 03:54:25;;;;;;;3.78;1.52;;;22.40;35.10;;;;;;4927600;29;20059;-53
2024/01/01 03:56:52;;;;;;;5.05;1.45;;;22.40;35.10;;;;;;4926632;29;20404;-58
2024/01/01 03:59:19;;;;;;;5.22;1.70;;;22.50;35.30;;;;;;4927437;29;20059;-57
2024/01/01 04:01:46;;;;;;;4.07;1.75;;;22.50;35.30;;;;;;4927863;29;20432;-55
2024/01/01 04:04:13;;;;;;;4.38;1.50;;;22.50;35.20;;;;;;4927331;29;20122;-55
2024/01/01 04:06:42;;;;;;;5.10;1.63;;;22.50;35.10;;;;;;4927417;29;20524;-52
2024/01/01 04:09:10;;;;;;;4.78;1.52;;;22.60;35.20;;;;;;4927934;29;20066;-57
2024/01/01 04:11:38;;;;;;;4.43;1.73;;;22.60;35.10;;;;;;4928537;29;20047;-56
2024/01/01 04:14:05;;;;;;;4.22;1.30;;;22.60;35.00;;;;;;4925557;29;20496;-51
2024/01/01 04:16:32;;;;;;;7.75;1.75;;;22.60;35.00;;;;;;4926529;29;20064;-55
2024/01/01 04:18:59;;;;;;;7.18;1.98;;;22.70;34.90;;;;;;4925228;29;20071;-55
2024/01/01 04:21:27;;;;;;;6.70;1.77;;;22.70;34.90;;;;;;4924129;29;20063;-52
2024/01/01 04:23:58;;;;;;;6.82;1.60;;;22.70;34.80;;;;;;4930439;29;20508;-56
2024/01/01 04:26:25;;;;;;;5.93;1.70;;;22.70;34.80;;;;;;4927488;29;20055;-55
2024/01/01 04:28:52;;;;;;;4.80;1.58;;;22.70;34.70;;;;;;4925573;29;20424;-56
2024/01/01 04:31:19;;;;;;;5.55;1.73;;;22.70;34.70;;;;;;4914356;29;20582;-55
2024/01/01 04:33:47;;;;;;;6.65;1.95;;;22.70;34.70;;;;;;4916807;29;20412;-57
2024/01/01 04:36:14;;;;;;;6.47;1.63;;;22.70;34.70;;;;;;4918811;29;20351;-56
2024/01/01 04:38:42;;;;;;;5.13;1.85;;;22.60;34.70;;;;;;4914266;29;20059;-55
2024/01/01 04:41:10;;;;;;;7.18;1.65;;;22.60;34.60;;;;;;4918209;29;20055;-55
2024/01/01 04:43:38;;;;;;;4.18;1.55;;;22.60;34.60;;;;;;4918222;29;20413;-52
2024/01/01 04:46:06;;;;;;;5.40;1.75;;;22.60;34.60;;;;;;4918388;29;20059;-57
2024/01/01 04:48:33;;;;;;;4.95;1.70;;;22.60;34.60;;;;;;4921144;29;20063;-55
2024/01/01 04:51:00;;;;;;;6.05;1.63;;;22.60;34.60;;;;;;4914716;29;20408;-54
2024/01/01 04:53:28;;;;;;;34.58;2.45;;;22.50;34.50;;;;;;4910897;29;20090;-60
2024/01/01 04:55:55;;;;;;;5.60;1.60;;;22.50;34.60;;;;;;4916024;29;20056;-58
2024/01/01 04:58:23;;;;;;;9.40;2.20;;;22.50;34.50;;;;;;4921739;29;20060;-54
2024/01/01 05:00:50;;;;;;;5.70;1.75;;;22.50;34.40;;;;;;4913391;29;20071;-55
2024/01/01 05:03:18;;;;;;;6.45;1.67;;;22.50;34.50;;;;;;4918383;29;20060;-57
2024/01/01 05:05:45;;;;;;;18.58;2.00;;;22.50;34.70;;;;;;4919441;29;20071;-59
2024/01/01 05:08:13;;;;;;;6.03;1.80;;;22.40;34.80;;;;;;4912656;29;20056;-59
2024/01/01 05:10:42;;;;;;;5.90;1.73;;;22.40;34.70;;;;;;4918704;29;20509;-59
2024/01/01 05:13:09;;;;;;;6.47;1.80;;;22.40;34.70;;;;;;4924161;29;20067;-59
2024/01/01 05:15:40;;;;;;;6.95;1.70;;;22.40;34.80;;;;;;4919260;29;20416;-59
2024/01/01 05:18:07;;;;;;;5.63;1.70;;;22.40;34.90;;;;;;4915657;29;20054;-59
2024/01/01 05:20:34;;;;;;;6.10;1.73;;;22.40;35.00;;;;;;4935584;29;20067;-59
2024/01/01 05:23:01;;;;;;;4.55;1.50;;;22.50;35.10;;;;;;4943046;29;20058;-59
2024/01/01 05:25:28;;;;;;;8.73;1.52;;;22.50;35.10;;;;;;4930755;29;20059;-58
2024/01/01 05:27:56;;;;;;;7.28;2.17;;;22.50;35.10;;;;;;4938341;29;20398;-59
2024/01/01 05:30:23;;;;;;;4.60;1.38;;;22.60;35.10;;;;;;4950705;28;20058;-59
2024/01/01 05:32:51;;;;;;;14.85;1.98;;;22.70;35.10;;;;;;4948720;28;20492;-58
2024/01/01 05:35:19;;;;;;;5.80;1.80;;;22.70;35.00;;;;;;4948749;28;20512;-57
2024/01/01 05:37:46;;;;;;;6.50;1.80;;;22.70;34.90;;;;;;4950665;29;20515;-58
2024/01/01 05:40:14;;;;;;;7.88;1.63;;;22.80;35.00;;;;;;4948526;28;20067;-58
2024/01/01 05:42:41;;;;;;;8.10;1.75;;;22.80;34.90;;;;;;4948725;28;20812;-58
2024/01/01 05:45:09;;;;;;;8.85;2.10;;;22.80;34.90;;;;;;4947872;28;20419;-58
2024/01/01 05:47:36;;;;;;;7.32;1.60;;;22.80;34.80;;;;;;4949362;28;20082;-58
2024/01/01 05:50:05;;;;;;;9.10;1.88;;;22.80;34.80;;;;;;4943757;28;20047;-60
2024/01/01 05:52:32;;;;;;;4.72;1.50;;;22.80;34.80;;;;;;4947628;29;20063;-59
2024/01/01 05:54:59;;;;;;;8.30;2.03;;;22.80;34.80;;;;;;4947900;28;20058;-57
2024/01/01 05:57:27;;;;;;;4.90;1.95;;;22.80;34.80;;;;;;4948803;28;20047;-59
2024/01/01 05:59:54;;;;;;;5.88;2.10;;;22.80;34.70;;;;;;4948222;28;20062;-59
2024/01/01 06:02:22;;;;;;;3.08;1.50;;;22.80;34.70;;;;;;4948683;28;20744;-57
2024/01/01 06:04:49;;;;;;;5.28;1.75;;;22.80;34.70;;;;;;4949145;28;20121;-59
2024/01/01 06:07:18;;;;;;;8.05;2.05;;;22.80;34.70;;;;;;4948534;28;20051;-56
2024/01/01 06:09:45;;;;;;;7.07;1.63;;;22.80;34.80;;;;;;4948209;28;20632;-56
2024/01/01 06:12:12;;;;;;;6.03;1.95;;;22.80;34.80;;;;;;4946941;28;20051;-57
2024/01/01 06:14:39;;;;;;;5.50;1.52;;;22.80;34.90;;;;;;4942953;28;20047;-52
2024/01/01 06:17:07;;;;;;;7.93;1.98;;;22.80;34.80;;;;;;4947782;28;20082;-51
2024/01/01 06:19:34;;;;;;;6.07;1.85;;;22.90;34.90;;;;;;4939999;29;20059;-51
2024/01/01 06:22:01;;;;;;;4.75;1.88;;;22.90;34.80;;;;;;4949997;28;20051;-52
2024/01/01 06:27:52;;;;;;;6.50;1.92;;;23.00;34.60;;;;;;4945076;28;20066;-52
2024/01/01 06:30:19;;;;;;;4.80;2.10;;;23.00;34.50;;;;;;4947169;28;20066;-59
2024/01/01 06:32:47;;;;;;;6.72;2.00;;;23.10;34.60;;;;;;4944201;28;20055;-56
2024/01/01 06:35:14;;;;;;;5.68;1.90;;;23.00;34.50;;;;;;4943224;28;20051;-56
2024/01/01 06:37:41;;;;;;;6.60;1.85;;;23.10;34.50;;;;;;4950562;28;20059;-54
2024/01/01 06:40:09;;;;;;;5.97;1.90;;;23.00;34.40;;;;;;4948346;28;20515;-56
2024/01/01 06:42:37;;;;;;;8.73;2.22;;;23.00;34.40;;;;;;4949170;28;20054;-58
2024/01/01 06:45:07;;;;;;;5.72;2.13;;;23.00;34.40;;;;;;4947465;28;20047;-56
2024/01/01 06:47:34;;;;;;;5.22;2.33;;;23.00;34.40;;;;;;4947913;28;20277;-58
2024/01/01 06:50:02;;;;;;;11.98;4.13;;;23.10;34.50;;;;;;4948776;29;20047;-56
2024/01/01 06:52:29;;;;;;;11.43;4.20;;;23.00;34.40;;;;;;4948187;28;20047;-55
2024/01/01 06:54:57;;;;;;;7.82;3.30;;;23.00;34.40;;;;;;4948636;28;20059;-55
2024/01/01 06:57:24;;;;;;;7.63;3.17;;;23.00;34.40;;;;;;4946872;28;20059;-55
2024/01/01 06:59:51;;;;;;;7.43;3.05;;;23.00;34.40;;;;;;4945099;28;20051;-58
2024/01/01 07:02:20;;;;;;;8.63;3.10;;;23.00;34.30;;;;;;4946375;28;20051;-59
2024/01/01 07:04:47;;;;;;;11.75;3.00;;;22.90;34.40;;;;;;4943418;29;20051;-61
2024/01/01 07:07:15;;;;;;;13.63;2.85;;;22.90;34.50;;;;;;4946032;28;20059;-59
2024/01/01 07:09:42;;;;;;;8.50;2.17;;;22.90;34.50;;;;;;4947509;28;20082;-59
2024/01/01 07:12:19;;;;;;;7.97;2.45;;;22.90;34.50;;;;;;4947309;28;20054;-58
2024/01/01 07:14:46;;;;;;;7.38;2.30;;;22.90;34.30;;;;;;4943139;28;20066;-60
2024/01/01 07:17:14;;;;;;;12.98;2.40;;;22.80;34.30;;;;;;4946482;29;20051;-62
2024/01/01 07:19:42;;;;;;;7.32;2.15;;;22.80;34.30;;;;;;4946579;29;20059;-59
2024/01/01 07:22:10;;;;;;;6.47;2.35;;;22.80;34.30;;;;;;4945708;28;20043;-59
2024/01/01 07:24:37;;;;;;;11.32;2.97;;;22.80;34.30;;;;;;4946550;28;20063;-58
2024/01/01 07:27:05;;;;;;;7.75;2.22;;;22.70;34.20;;;;;;4944645;28;20062;-62
2024/01/01 07:29:32;;;;;;;6.03;2.05;;;22.70;34.20;;;;;;4949052;28;20055;-62
2024/01/01 07:31:59;;;;;;;7.22;1.92;;;22.70;34.20;;;;;;4944604;29;20047;-62
2024/01/01 07:34:26;;;;;;;8.65;2.38;;;22.60;34.20;;;;;;4944899;28;20058;-62
2024/01/01 07:36:57;;;;;;;5.35;1.92;;;22.60;34.20;;;;;;4950294;28;20051;-62
2024/01/01 07:39:25;;;;;;;8.38;2.35;;;22.60;34.20;;;;;;4946631;28;20051;-62
2024/01/01 07:41:52;;;;;;;6.85;2.50;;;22.50;34.20;;;;;;4945847;28;20051;-62
2024/01/01 07:44:20;;;;;;;12.02;2.22;;;22.50;34.20;;;;;;4942448;28;20066;-65
2024/01/01 07:46:48;;;;;;;6.95;2.45;;;22.50;34.30;;;;;;4947202;28;20051;-63
2024/01/01 07:49:16;;;;;;;5.93;2.08;;;22.50;34.30;;;;;;4945032;28;20055;-63
2024/01/01 07:55:09;;;;;;;5.57;1.80;;;22.40;34.30;;;;;;4945072;28;20128;-62
2024/01/01 07:57:36;;;;;;;5.18;2.05;;;22.40;34.30;;;;;;4945585;28;20070;-62
2024/01/01 08:00:04;;;;;;;6.68;2.10;;;22.40;34.40;;;;;;4946131;28;20063;-63
2024/01/01 08:02:31;;;;;;;6.53;1.80;;;22.30;34.50;;;;;;4949218;28;20059;-63
2024/01/01 08:11:45;;;;;;;6.50;1.70;;;22.30;34.80;;;;;;4942967;28;20050;-63
2024/01/01 08:14:12;;;;;;;5.53;1.77;;;22.30;34.90;;;;;;4946028;29;20063;-62
2024/01/01 08:16:40;;;;;;;3.20;1.33;;;22.40;35.00;;;;;;4945931;28;20058;-61
2024/01/01 08:19:07;;;;;;;5.43;1.40;;;22.40;35.10;;;;;;4946252;28;20086;-63
2024/01/01 08:21:34;;;;;;;4.57;1.60;;;22.50;35.10;;;;;;4947479;28;20499;-60
2024/01/01 08:24:02;;;;;;;6.05;1.45;;;22.50;35.20;;;;;;4947787;28;20043;-64
2024/01/01 08:26:30;;;;;;;5.03;1.40;;;22.50;35.10;;;;;;4946471;28;20546;-62
2024/01/01 08:28:58;;;;;;;3.38;1.40;;;22.60;35.20;;;;;;4946894;28;20056;-65
2024/01/01 08:31:26;;;;;;;5.32;1.70;;;22.70;35.20;;;;;;4948474;28;20058;-65
2024/01/01 08:33:53;;;;;;;5.40;2.00;;;22.80;35.10;;;;;;4944152;28;20622;-63
2024/01/01 08:36:20;;;;;;;5.80;1.70;;;22.80;35.00;;;;;;4945265;28;20058;-57
2024/01/01 08:38:47;;;;;;;2.50;1.33;;;22.90;35.00;;;;;;4948172;28;20054;-56
2024/01/01 08:41:15;;;;;;;3.17;1.40;;;22.90;34.90;;;;;;4946664;29;20051;-58
2024/01/01 08:43:42;;;;;;;3.05;1.45;;;23.00;34.90;;;;;;4947276;28;20432;-60
2024/01/01 08:46:10;;;;;;;4.97;1.65;;;23.00;34.80;;;;;;4944906;28;20070;-60
2024/01/01 08:48:38;;;;;;;6.00;1.50;;;23.10;34.70;;;;;;4942923;28;20497;-60
2024/01/01 08:51:06;;;;;;;4.57;1.70;;;23.10;34.60;;;;;;4946691;28;20408;-61
2024/01/01 08:53:33;;;;;;;4.15;1.40;;;23.10;34.60;;;;;;4946265;28;20043;-63
2024/01/01 08:56:00;;;;;;;3.22;1.42;;;23.10;34.60;;;;;;4946794;28;20052;-58
2024/01/01 08:58:28;;;;;;;4.68;1.42;;;23.10;34.60;;;;;;4943192;28;20062;-60
2024/01/01 09:00:55;;;;;;;5.20;1.80;;;23.10;34.50;;;;;;4948459;28;20066;-58
2024/01/01 09:03:23;;;;;;;5.05;1.42;;;23.10;34.50;;;;;;4944079;28;20074;-62
2024/01/01 09:05:53;;;;;;;3.85;1.40;;;23.10;34.40;;;;;;4943205;28;20058;-57
2024/01/01 09:08:20;;;;;;;4.55;1.23;;;23.00;34.30;;;;;;4948599;28;20058;-58
2024/01/01 09:10:47;;;;;;;2.47;1.08;;;23.10;34.30;;;;;;4948665;28;20059;-61
2024/01/01 09:16:38;;;;;;;4.20;1.55;;;23.00;34.30;;;;;;4942590;28;20034;-57
2024/01/01 09:19:07;;;;;;;3.70;1.50;;;23.00;34.20;;;;;;4946756;28;20503;-57
2024/01/01 09:21:34;;;;;;;3.35;1.50;;;23.00;34.20;;;;;;4947714;28;20066;-60
2024/01/01 09:24:01;;;;;;;2.67;1.10;;;23.00;34.20;;;;;;4944038;28;20091;-59
2024/01/01 09:26:29;;;;;;;2.95;1.02;;;22.90;34.20;;;;;;4948152;28;20063;-56
2024/01/01 09:28:57;;;;;;;3.03;1.27;;;22.90;34.20;;;;;;4944341;28;20066;-61
2024/01/01 09:31:24;;;;;;;3.08;1.30;;;22.90;34.30;;;;;;4944761;28;20518;-59
2024/01/01 09:33:51;;;;;;;4.90;1.10;;;22.90;34.40;;;;;;4948997;28;20047;-58
2024/01/01 09:36:20;;;;;;;9.30;1.42;;;22.80;34.30;;;;;;4946896;28;20380;-61
2024/01/01 09:38:47;;;;;;;6.38;1.33;;;22.80;34.20;;;;;;4947947;28;20063;-59
2024/01/01 09:41:14;;;;;;;2.97;1.10;;;22.80;34.20;;;;;;4949599;29;20086;-58
2024/01/01 09:43:42;;;;;;;4.18;0.85;;;22.80;34.30;;;;;;4946949;28;20055;-58
2024/01/01 09:46:10;;;;;;;2.50;0.98;;;22.70;34.30;;;;;;4949560;28;20073;-58
2024/01/01 09:48:37;;;;;;;1.30;0.70;;;22.70;34.30;;;;;;4946813;28;20067;-59
2024/01/01 09:51:05;;;;;;;1.80;0.90;;;22.70;34.40;;;;;;4949825;28;20052;-59
2024/01/01 09:53:32;;;;;;;1.85;0.90;;;22.70;34.40;;;;;;4950414;29;20062;-58
2024/01/01 09:56:46;;;;;;;2.95;1.27;;;22.60;34.40;;;;;;4950349;28;20059;-59
2024/01/01 09:59:32;;;;;;;1.65;0.80;;;22.60;34.50;;;;;;4949130;29;20527;-60
2024/01/01 10:02:03;;;;;;;3.42;0.80;;;22.70;34.60;;;;;;4948275;28;20527;-59
2024/01/01 10:04:30;;;;;;;2.55;1.05;;;22.80;35.20;;;;;;4945020;28;20058;-58
2024/01/01 10:06:59;;;;;;;2.50;1.20;;;22.80;34.70;;;;;;4947249;28;20063;-59
2024/01/01 10:09:28;;;;;;;2.83;1.50;;;22.80;34.70;;;;;;4947777;28;20062;-59
2024/01/01 10:15:18;;;;;;;4.10;2.10;;;22.90;34.60;;;;;;4948097;28;20050;-58
2024/01/01 10:17:45;;;;;;;5.28;2.95;;;23.00;34.60;;;;;;4949867;28;21752;-60
2024/01/01 10:20:12;;;;;;;4.50;2.75;;;22.90;34.40;;;;;;4945656;28;20085;-58
2024/01/01 10:22:40;;;;;;;4.18;2.40;;;23.00;34.40;;;;;;4947022;28;20063;-58
2024/01/01 10:25:12;;;;;;;3.05;2.13;;;23.00;34.40;;;;;;4945792;28;20055;-60
2024/01/01 10:27:41;;;;;;;4.15;2.25;;;22.90;34.30;;;;;;4948183;28;20063;-60
2024/01/01 10:30:09;;;;;;;3.88;2.28;;;23.00;34.40;;;;;;4947640;28;20055;-60
2024/01/01 10:32:38;;;;;;;4.28;1.98;;;22.90;34.40;;;;;;4947003;29;20082;-63
2024/01/01 10:35:06;;;;;;;2.60;1.70;;;23.00;34.40;;;;;;4948505;28;20059;-62
2024/01/01 10:37:34;;;;;;;3.30;1.70;;;22.90;34.30;;;;;;4949567;28;20055;-62
2024/01/01 10:40:05;;;;;;;2.78;1.40;;;22.90;34.30;;;;;;4945806;28;20466;-62
2024/01/01 10:42:37;;;;;;;2.75;1.30;;;22.90;34.30;;;;;;4947936;28;20054;-62
2024/01/01 10:45:05;;;;;;;2.20;1.40;;;22.90;34.30;;;;;;4944899;28;20051;-63
2024/01/01 10:47:32;;;;;;;4.85;1.08;;;22.90;34.30;;;;;;4946518;29;20058;-60
2024/01/01 10:50:13;;;;;;;3.10;1.27;;;22.90;34.40;;;;;;4946117;28;20082;-60
2024/01/01 10:52:54;;;;;;;1.42;1.05;;;22.80;34.30;;;;;;4946980;28;20046;-60
2024/01/01 10:55:43;;;;;;;1.70;1.08;;;22.80;34.30;;;;;;4947150;28;20051;-63
2024/01/01 10:58:23;;;;;;;1.08;0.70;;;22.80;34.10;;;;;;4947430;28;20403;-63
2024/01/01 11:01:02;;;;;;;1.00;0.80;;;22.70;34.10;;;;;;4946842;28;20536;-62
2024/01/01 11:03:31;;;;;;;0.90;0.73;;;22.80;34.20;;;;;;4945739;28;20059;-56
2024/01/01 11:05:59;;;;;;;1.80;0.95;;;22.70;34.20;;;;;;4947150;28;20480;-63
2024/01/01 11:08:27;;;;;;;1.83;0.88;;;22.70;34.20;;;;;;4947558;29;20062;-63
2024/01/01 11:10:55;;;;;;;0.93;0.70;;;22.70;34.20;;;;;;4946099;28;20055;-62
2024/01/01 11:13:55;;;;;;;1.65;0.82;;;22.60;34.20;;;;;;4945861;28;20058;-59
2024/01/01 11:16:23;;;;;;;1.45;0.88;;;22.60;34.20;;;;;;4947760;28;20066;-57
2024/01/01 11:18:52;;;;;;;0.75;0.63;;;22.60;34.30;;;;;;4946484;28;20051;-57
2024/01/01 11:21:32;;;;;;;1.15;0.70;;;22.60;34.30;;;;;;4949898;28;20055;-60
2024/01/01 11:24:01;;;;;;;1.98;0.98;;;22.50;34.30;;;;;;4947888;28;20054;-61
2024/01/01 11:26:32;;;;;;;1.25;0.65;;;22.60;34.50;;;;;;4944184;28;20059;-60
2024/01/01 11:29:02;;;;;;;1.20;0.60;;;22.60;34.60;;;;;;4945765;28;20632;-59
2024/01/01 11:31:31;;;;;;;1.67;0.80;;;22.60;34.60;;;;;;4947514;28;20062;-57
2024/01/01 11:34:03;;;;;;;1.55;0.75;;;22.60;34.70;;;;;;4949784;28;20058;-62
2024/01/01 11:36:30;;;;;;;0.73;0.45;;;22.70;34.70;;;;;;4949741;28;20060;-59
2024/01/01 11:38:58;;;;;;;1.75;0.68;;;22.80;34.80;;;;;;4952095;29;20403;-59
2024/01/01 11:41:27;;;;;;;1.67;0.77;;;22.80;34.70;;;;;;4950278;29;20088;-63
2024/01/01 11:43:55;;;;;;;2.28;0.82;;;22.80;34.70;;;;;;4947181;28;20487;-62
2024/01/01 11:46:27;;;;;;;3.00;0.63;;;22.80;34.60;;;;;;4950351;28;20515;-66
2024/01/01 11:49:01;;;;;;;1.80;0.70;;;22.90;34.60;;;;;;4949303;28;20424;-63
2024/01/01 11:51:31;;;;;;;2.75;1.13;;;22.90;34.60;;;;;;4953064;28;20090;-65
2024/01/01 11:54:09;;;;;;;0.88;0.57;;;22.90;34.60;;;;;;4953685;29;20055;-65
2024/01/01 11:56:37;;;;;;;2.25;0.60;;;22.90;34.80;;;;;;4953121;29;20063;-60
2024/01/01 11:59:06;;;;;;;1.83;0.65;;;22.90;35.30;;;;;;4952456;28;20055;-65
2024/01/01 12:01:37;;;;;;;3.17;1.40;;;22.90;34.90;;;;;;4954424;28;20070;-63
2024/01/01 12:04:07;;;;;;;2.40;1.00;;;23.00;35.00;;;;;;4951988;28;20464;-63
2024/01/01 12:06:34;;;;;;;9.27;1.40;;;23.00;35.00;;;;;;4953616;28;20385;-60
2024/01/01 12:09:10;;;;;;;2.28;1.25;;;23.00;35.00;;;;;;4953304;29;20052;-64
2024/01/01 12:11:38;;;;;;;3.50;1.45;;;23.00;35.00;;;;;;4952747;29;20515;-62
2024/01/01 12:14:05;;;;;;;9.70;1.85;;;23.00;35.00;;;;;;4953152;28;20412;-62
2024/01/01 12:16:36;;;;;;;7.00;1.73;;;23.00;35.00;;;;;;4950635;28;20051;-61
2024/01/01 12:19:04;;;;;;;9.32;1.80;;;23.00;35.10;;;;;;4955705;28;20055;-61
2024/01/01 12:21:39;;;;;;;6.65;1.70;;;23.00;35.00;;;;;;4953454;28;20079;-61
2024/01/01 12:24:08;;;;;;;3.67;1.30;;;23.10;34.90;;;;;;4951763;28;20378;-62
2024/01/01 12:26:36;;;;;;;2.78;1.27;;;23.00;34.70;;;;;;4953133;29;20067;-59
2024/01/01 12:29:09;;;;;;;3.97;1.30;;;23.10;34.60;;;;;;4952350;28;20059;-60
2024/01/01 12:31:38;;;;;;;2.67;1.10;;;23.00;34.40;;;;;;4951980;28;20055;-60
2024/01/01 12:34:06;;;;;;;5.80;1.25;;;23.00;34.20;;;;;;4950278;28;20163;-60
2024/01/01 12:36:34;;;;;;;10.02;1.50;;;23.00;34.30;;;;;;4953134;28;20058;-59
2024/01/01 12:39:02;;;;;;;12.82;1.98;;;23.00;34.30;;;;;;4952960;29;20062;-60
2024/01/01 12:41:29;;;;;;;10.27;1.65;;;23.00;34.20;;;;;;4951364;28;20512;-62
2024/01/01 12:43:58;;;;;;;10.32;1.80;;;22.90;34.10;;;;;;4948265;28;20051;-61
2024/01/01 12:46:26;;;;;;;8.00;1.70;;;22.90;34.00;;;;;;4952641;28;20051;-61
2024/01/01 12:48:54;;;;;;;7.65;2.05;;;22.90;33.90;;;;;;4950206;28;20066;-61
2024/01/01 12:51:23;;;;;;;6.38;1.60;;;22.90;33.90;;;;;;4951956;28;20051;-61
2024/01/01 12:53:50;;;;;;;7.50;1.98;;;22.90;33.90;;;;;;4951698;28;20058;-61
2024/01/01 12:56:17;;;;;;;5.38;1.63;;;22.90;34.00;;;;;;4950643;28;20059;-61
2024/01/01 12:58:45;;;;;;;9.75;1.45;;;22.90;34.10;;;;;;4951625;28;20059;-61
2024/01/01 13:01:12;;;;;;;7.85;1.80;;;22.90;34.20;;;;;;4952335;28;20500;-61
2024/01/01 13:03:41;;;;;;;5.63;1.60;;;22.90;34.20;;;;;;4950416;28;20055;-61
2024/01/01 13:06:11;;;;;;;3.10;1.42;;;23.00;34.20;;;;;;4952728;29;20051;-61
2024/01/01 13:08:38;;;;;;;5.20;1.70;;;23.10;34.20;;;;;;4953270;28;20058;-61
2024/01/01 13:11:06;;;;;;;4.13;1.75;;;23.10;34.20;;;;;;4956601;28;20070;-61
2024/01/01 13:13:34;;;;;;;7.88;1.80;;;23.10;34.10;;;;;;4951884;28;20143;-60